Time;durP1;ratioP1;P1;durP2;ratioP2;P2;SDS_P1;SDS_P2;PMS_P1;PMS_P2;Temp;Humidity;BMP_temperature;BMP_pressure;BME280_temperature;BME280_humidity;BME280_pressure;Samples;Min_cycle;Max_cycle;Signal;HPM_P1;HPM_P2
2023/05/08 00:02:09;;;;;;;;;;;13.20;87.80;;;;;;5089729;28;20013;-65
2023/05/08 00:04:36;;;;;;;;;;;13.30;87.70;;;;;;5090216;28;19912;-69
2023/05/08 00:07:03;;;;;;;;;;;13.40;87.90;;;;;;5090193;28;19912;-65
2023/05/08 00:09:30;;;;;;;;;;;13.50;87.70;;;;;;5092511;28;19912;-66
2023/05/08 00:11:56;;;;;;;;;;;13.60;87.80;;;;;;5089777;28;19966;-68
2023/05/08 00:14:23;;;;;;;;;;;13.70;87.80;;;;;;5090440;28;20004;-66
2023/05/08 00:16:50;;;;;;;;;;;13.80;86.10;;;;;;5089936;28;19924;-68
2023/05/08 00:19:16;;;;;;;;;;;13.80;86.60;;;;;;5089267;28;19915;-66
2023/05/08 00:21:43;;;;;;;;;;;13.90;86.80;;;;;;5089169;28;19916;-66
2023/05/08 00:24:09;;;;;;;;;;;14.00;86.00;;;;;;5090140;28;19916;-65
2023/05/08 00:26:36;;;;;;;;;;;14.10;86.70;;;;;;5071621;28;19912;-65
2023/05/08 00:29:03;;;;;;;;;;;14.10;86.20;;;;;;5090195;28;20368;-68
2023/05/08 00:31:30;;;;;;;;;;;14.30;86.10;;;;;;5090009;28;19912;-68
2023/05/08 00:33:57;;;;;;;;;;;14.30;86.40;;;;;;5094038;28;19908;-67
2023/05/08 00:36:23;;;;;;;;;;;14.30;85.60;;;;;;5092675;28;20027;-67
2023/05/08 00:38:50;;;;;;;;;;;14.40;85.70;;;;;;5094841;28;19919;-66
2023/05/08 00:41:17;;;;;;;;;;;14.50;85.80;;;;;;5093564;28;19916;-68
2023/05/08 00:43:43;;;;;;;;;;;14.50;84.90;;;;;;5094493;28;19920;-72
2023/05/08 00:46:10;;;;;;;;;;;14.60;84.70;;;;;;5094032;28;19948;-68
2023/05/08 00:48:37;;;;;;;;;;;14.60;84.40;;;;;;5094682;28;20339;-66
2023/05/08 00:51:06;;;;;;;;;;;14.60;84.50;;;;;;5094386;28;19908;-68
2023/05/08 00:53:35;;;;;;;;;;;14.70;84.70;;;;;;5094392;28;20561;-68
2023/05/08 00:56:01;;;;;;;;;;;14.80;84.90;;;;;;5093864;28;19950;-67
2023/05/08 00:58:29;;;;;;;;;;;14.80;84.40;;;;;;5093731;28;19912;-69
2023/05/08 01:00:56;;;;;;;;;;;14.90;84.00;;;;;;5092648;28;19919;-67
2023/05/08 01:03:24;;;;;;;;;;;15.00;83.60;;;;;;5089912;28;19912;-68
2023/05/08 01:05:50;;;;;;;;;;;15.20;84.10;;;;;;5094276;28;19912;-67
2023/05/08 01:08:17;;;;;;;;;;;15.30;83.60;;;;;;5093930;28;19916;-68
2023/05/08 01:10:47;;;;;;;;;;;15.30;83.60;;;;;;5093911;28;19916;-70
2023/05/08 01:13:22;;;;;;;;;;;15.40;84.10;;;;;;5094698;28;20025;-66
2023/05/08 01:16:00;;;;;;;;;;;15.60;83.90;;;;;;5093209;28;19969;-67
2023/05/08 01:18:36;;;;;;;;;;;15.80;82.00;;;;;;5088053;28;20368;-71
2023/05/08 01:21:06;;;;;;;;;;;15.90;82.00;;;;;;5085533;28;19923;-67
2023/05/08 01:23:39;;;;;;;;;;;16.10;82.40;;;;;;5083098;28;19921;-66
2023/05/08 01:26:09;;;;;;;;;;;16.10;81.40;;;;;;5074984;28;20273;-65
2023/05/08 01:28:50;;;;;;;;;;;16.10;81.10;;;;;;5090158;28;19920;-68
2023/05/08 01:31:26;;;;;;;;;;;16.00;80.00;;;;;;5090018;28;20277;-67
2023/05/08 01:33:56;;;;;;;;;;;15.90;80.30;;;;;;5090402;28;19912;-66
2023/05/08 01:36:48;;;;;;;;;;;16.10;80.60;;;;;;5092671;28;19912;-65
2023/05/08 01:39:33;;;;;;;;;;;16.10;81.70;;;;;;5054946;28;20280;-66
2023/05/08 01:42:05;;;;;;;;;;;16.20;80.60;;;;;;5090849;28;19921;-67
2023/05/08 01:44:37;;;;;;;;;;;16.20;80.20;;;;;;5089746;28;19912;-68
2023/05/08 01:47:09;;;;;;;;;;;16.20;80.00;;;;;;5090946;28;19919;-66
2023/05/08 01:49:44;;;;;;;;;;;16.40;81.10;;;;;;5093089;28;19912;-65
2023/05/08 01:52:20;;;;;;;;;;;16.60;81.20;;;;;;5092934;28;20334;-67
2023/05/08 01:54:55;;;;;;;;;;;16.80;79.30;;;;;;5093018;28;19912;-69
2023/05/08 01:57:23;;;;;;;;;;;16.80;80.00;;;;;;5074627;28;19921;-68
2023/05/08 01:59:51;;;;;;;;;;;16.90;79.60;;;;;;5093624;28;19912;-65
2023/05/08 02:02:18;;;;;;;;;;;17.00;79.00;;;;;;5091850;28;19915;-67
2023/05/08 02:04:45;;;;;;;;;;;17.10;78.70;;;;;;5093042;28;20365;-68
2023/05/08 02:07:11;;;;;;;;;;;17.20;77.90;;;;;;5092055;28;19912;-65
2023/05/08 02:09:40;;;;;;;;;;;17.30;78.80;;;;;;5092652;28;20360;-66
2023/05/08 02:12:07;;;;;;;;;;;17.30;78.20;;;;;;5093177;28;19908;-66
2023/05/08 02:14:35;;;;;;;;;;;17.20;78.10;;;;;;5074708;28;19939;-70
2023/05/08 02:17:04;;;;;;;;;;;17.20;78.80;;;;;;5092596;28;19924;-65
2023/05/08 02:19:31;;;;;;;;;;;17.20;78.90;;;;;;5092289;28;19912;-69
2023/05/08 02:21:58;;;;;;;;;;;17.20;77.90;;;;;;5092892;28;20361;-68
2023/05/08 02:24:25;;;;;;;;;;;17.20;78.80;;;;;;5092792;28;19912;-67
2023/05/08 02:26:53;;;;;;;;;;;17.20;77.60;;;;;;5092359;28;19918;-65
2023/05/08 02:29:21;;;;;;;;;;;17.30;78.00;;;;;;5091701;28;19916;-67
2023/05/08 02:31:49;;;;;;;;;;;17.40;78.40;;;;;;5091976;28;19912;-69
2023/05/08 02:34:16;;;;;;;;;;;17.50;75.60;;;;;;5092218;28;19967;-69
2023/05/08 02:36:44;;;;;;;;;;;17.60;75.90;;;;;;5092417;28;19935;-65
2023/05/08 02:39:12;;;;;;;;;;;17.70;75.10;;;;;;5092873;28;19916;-67
2023/05/08 02:41:41;;;;;;;;;;;17.70;75.70;;;;;;5087445;28;20454;-67
2023/05/08 02:44:08;;;;;;;;;;;17.70;75.30;;;;;;5073573;28;19916;-67
2023/05/08 02:46:45;;;;;;;;;;;17.70;75.50;;;;;;5073114;28;19999;-66
2023/05/08 02:49:16;;;;;;;;;;;17.50;74.90;;;;;;5091246;28;19912;-67
2023/05/08 02:52:03;;;;;;;;;;;17.40;74.20;;;;;;5089685;28;19908;-65
2023/05/08 02:54:34;;;;;;;;;;;17.30;74.80;;;;;;5080054;28;19953;-68
2023/05/08 02:57:20;;;;;;;;;;;17.10;75.70;;;;;;5090971;28;19927;-66
2023/05/08 03:00:00;;;;;;;;;;;17.00;76.20;;;;;;5033626;28;20281;-66
2023/05/08 03:02:47;;;;;;;;;;;16.80;75.70;;;;;;5082713;28;19957;-67
2023/05/08 03:05:16;;;;;;;;;;;16.70;75.80;;;;;;5061824;28;19926;-64
2023/05/08 03:07:44;;;;;;;;;;;16.60;77.20;;;;;;5090582;28;19916;-67
2023/05/08 03:10:14;;;;;;;;;;;16.60;76.90;;;;;;5091814;28;19908;-65
2023/05/08 03:12:52;;;;;;;;;;;16.50;76.00;;;;;;5090888;28;19920;-65
2023/05/08 03:15:29;;;;;;;;;;;16.40;76.50;;;;;;5091163;28;19912;-67
2023/05/08 03:17:58;;;;;;;;;;;16.40;76.20;;;;;;5090788;28;19916;-69
2023/05/08 03:20:26;;;;;;;;;;;16.40;76.10;;;;;;5091247;28;19920;-66
2023/05/08 03:22:53;;;;;;;;;;;16.40;76.30;;;;;;5090076;28;19908;-64
2023/05/08 03:25:20;;;;;;;;;;;16.50;76.40;;;;;;5090229;28;19919;-66
2023/05/08 03:27:48;;;;;;;;;;;16.50;76.20;;;;;;5090246;28;19912;-68
2023/05/08 03:30:16;;;;;;;;;;;16.60;76.10;;;;;;5090921;28;19912;-67
2023/05/08 03:32:44;;;;;;;;;;;16.90;75.40;;;;;;5090581;28;19923;-66
2023/05/08 03:35:11;;;;;;;;;;;17.20;73.80;;;;;;5090846;28;19912;-66
2023/05/08 03:37:41;;;;;;;;;;;17.20;73.30;;;;;;5090653;28;19924;-68
2023/05/08 03:40:08;;;;;;;;;;;17.30;73.50;;;;;;5090808;28;19912;-67
2023/05/08 03:42:36;;;;;;;;;;;17.40;73.40;;;;;;5089108;28;19973;-67
2023/05/08 03:45:03;;;;;;;;;;;17.70;71.20;;;;;;5091650;28;19916;-62
2023/05/08 03:47:30;;;;;;;;;;;17.90;69.90;;;;;;5090026;28;19941;-65
2023/05/08 03:50:00;;;;;;;;;;;18.00;69.40;;;;;;5091328;28;19913;-66
2023/05/08 03:52:26;;;;;;;;;;;18.00;69.10;;;;;;5091809;28;19999;-66
2023/05/08 03:54:53;;;;;;;;;;;17.90;68.60;;;;;;5091073;28;19971;-67
2023/05/08 03:57:20;;;;;;;;;;;17.70;68.50;;;;;;5072256;28;19920;-67
2023/05/08 03:59:47;;;;;;;;;;;17.60;69.40;;;;;;5090735;28;19926;-66
2023/05/08 04:02:17;;;;;;;;;;;17.60;69.20;;;;;;5092605;28;19916;-68
2023/05/08 04:04:46;;;;;;;;;;;17.70;69.20;;;;;;5090847;28;19913;-67
2023/05/08 04:07:27;;;;;;;;;;;17.60;68.70;;;;;;5089599;28;20007;-65
2023/05/08 04:10:09;;;;;;;;;;;17.50;68.90;;;;;;5092868;28;20360;-65
2023/05/08 04:12:36;;;;;;;;;;;17.40;69.20;;;;;;5090591;28;19920;-66
2023/05/08 04:15:10;;;;;;;;;;;17.20;69.00;;;;;;5104419;28;19912;-67
2023/05/08 04:17:48;;;;;;;;;;;17.20;69.10;;;;;;5094725;28;19916;-65
2023/05/08 04:20:18;;;;;;;;;;;17.10;69.70;;;;;;5094915;28;20255;-67
2023/05/08 04:22:47;;;;;;;;;;;17.10;69.80;;;;;;5094688;28;19915;-65
2023/05/08 04:25:14;;;;;;;;;;;17.00;69.80;;;;;;5094594;28;19955;-65
2023/05/08 04:27:42;;;;;;;;;;;17.00;70.50;;;;;;5095103;28;20365;-66
2023/05/08 04:30:09;;;;;;;;;;;17.00;70.50;;;;;;5094455;28;19912;-66
2023/05/08 04:32:36;;;;;;;;;;;16.90;67.70;;;;;;5094113;28;19919;-66
2023/05/08 04:35:03;;;;;;;;;;;16.80;68.00;;;;;;5094861;28;19916;-68
2023/05/08 04:37:30;;;;;;;;;;;16.90;68.40;;;;;;5094981;28;20330;-68
2023/05/08 04:39:57;;;;;;;;;;;16.90;68.80;;;;;;5095249;28;19912;-67
2023/05/08 04:42:27;;;;;;;;;;;16.90;66.70;;;;;;5094421;28;19924;-67
2023/05/08 04:44:54;;;;;;;;;;;16.90;68.00;;;;;;5094558;28;20285;-66
2023/05/08 04:47:21;;;;;;;;;;;17.00;68.50;;;;;;5094018;28;19912;-68
2023/05/08 04:49:47;;;;;;;;;;;16.90;67.20;;;;;;5095022;28;19919;-67
2023/05/08 04:52:14;;;;;;;;;;;16.90;67.80;;;;;;5093656;28;20317;-67
2023/05/08 04:54:40;;;;;;;;;;;16.80;68.30;;;;;;5094211;28;20382;-67
2023/05/08 04:57:07;;;;;;;;;;;16.70;68.50;;;;;;5094804;28;20395;-67
2023/05/08 04:59:34;;;;;;;;;;;16.60;68.80;;;;;;5094035;28;19916;-68
2023/05/08 05:02:01;;;;;;;;;;;16.50;68.70;;;;;;5094077;28;19938;-67
2023/05/08 05:04:28;;;;;;;;;;;16.40;68.60;;;;;;5094549;28;20034;-69
2023/05/08 05:06:55;;;;;;;;;;;16.40;69.50;;;;;;5093734;28;19923;-67
2023/05/08 05:09:21;;;;;;;;;;;16.30;69.30;;;;;;5093298;28;19919;-68
2023/05/08 05:11:48;;;;;;;;;;;16.30;69.60;;;;;;5093937;28;19915;-66
2023/05/08 05:14:14;;;;;;;;;;;16.30;70.60;;;;;;5093657;28;19908;-69
2023/05/08 05:16:41;;;;;;;;;;;16.30;70.60;;;;;;5092917;28;19943;-67
2023/05/08 05:19:08;;;;;;;;;;;16.30;69.40;;;;;;5092180;28;19912;-67
2023/05/08 05:21:36;;;;;;;;;;;16.20;69.60;;;;;;5092563;28;19919;-66
2023/05/08 05:24:04;;;;;;;;;;;16.30;70.10;;;;;;5092937;28;20365;-67
2023/05/08 05:26:31;;;;;;;;;;;16.30;69.80;;;;;;5099162;28;19935;-68
2023/05/08 05:28:57;;;;;;;;;;;16.30;69.70;;;;;;5093071;28;19943;-70
2023/05/08 05:31:24;;;;;;;;;;;16.30;69.70;;;;;;5093433;28;19944;-66
2023/05/08 05:33:52;;;;;;;;;;;16.30;69.90;;;;;;5093951;28;19961;-69
2023/05/08 05:36:18;;;;;;;;;;;16.30;70.70;;;;;;5093895;28;19959;-68
2023/05/08 05:38:45;;;;;;;;;;;16.30;69.70;;;;;;5093545;28;20012;-67
2023/05/08 05:41:12;;;;;;;;;;;16.20;69.40;;;;;;5071369;28;19920;-66
2023/05/08 05:43:38;;;;;;;;;;;16.20;69.40;;;;;;5072970;28;19915;-66
2023/05/08 05:46:06;;;;;;;;;;;16.20;69.40;;;;;;5072702;28;20437;-66
2023/05/08 05:48:33;;;;;;;;;;;16.20;70.00;;;;;;5072276;28;20324;-69
2023/05/08 05:50:59;;;;;;;;;;;16.30;70.50;;;;;;5072654;28;19912;-67
2023/05/08 05:53:26;;;;;;;;;;;16.40;70.40;;;;;;5073498;28;19904;-66
2023/05/08 05:55:53;;;;;;;;;;;16.50;69.90;;;;;;5073315;28;19924;-68
2023/05/08 05:58:20;;;;;;;;;;;16.50;69.70;;;;;;5072603;28;20371;-68
2023/05/08 06:00:47;;;;;;;;;;;16.60;70.10;;;;;;5072609;28;19913;-67
2023/05/08 06:03:13;;;;;;;;;;;16.80;71.00;;;;;;5073237;28;20365;-68
2023/05/08 06:05:40;;;;;;;;;;;17.10;70.00;;;;;;5076025;28;19913;-65
2023/05/08 06:08:07;;;;;;;;;;;17.30;68.90;;;;;;5072725;28;20265;-67
2023/05/08 06:10:34;;;;;;;;;;;17.30;68.80;;;;;;5072438;28;19920;-67
2023/05/08 06:13:01;;;;;;;;;;;17.20;68.50;;;;;;5071671;28;20262;-68
2023/05/08 06:15:27;;;;;;;;;;;17.10;68.70;;;;;;5072713;28;19919;-68
2023/05/08 06:17:54;;;;;;;;;;;17.30;69.20;;;;;;5072685;28;19920;-68
2023/05/08 06:20:21;;;;;;;;;;;17.40;68.40;;;;;;5071467;28;19912;-66
2023/05/08 06:22:47;;;;;;;;;;;17.60;68.70;;;;;;5071945;28;19913;-67
2023/05/08 06:25:15;;;;;;;;;;;17.60;69.00;;;;;;5071952;28;19954;-67
2023/05/08 06:27:42;;;;;;;;;;;17.50;69.20;;;;;;5072330;28;20276;-67
2023/05/08 06:30:09;;;;;;;;;;;17.30;69.40;;;;;;5071854;28;19965;-68
2023/05/08 06:32:36;;;;;;;;;;;17.10;70.30;;;;;;5071230;28;20362;-67
2023/05/08 06:35:02;;;;;;;;;;;16.90;69.80;;;;;;5055392;28;19933;-67
2023/05/08 06:37:29;;;;;;;;;;;16.70;70.20;;;;;;5071672;28;19966;-69
2023/05/08 06:39:56;;;;;;;;;;;16.60;70.70;;;;;;5071715;28;19963;-67
2023/05/08 06:42:22;;;;;;;;;;;16.50;70.70;;;;;;5088614;28;20003;-68
2023/05/08 06:44:52;;;;;;;;;;;16.40;71.40;;;;;;5091565;28;19912;-67
2023/05/08 06:47:19;;;;;;;;;;;16.30;71.90;;;;;;5092216;28;19991;-68
2023/05/08 06:49:45;;;;;;;;;;;16.20;72.30;;;;;;5092829;28;19908;-66
2023/05/08 06:52:12;;;;;;;;;;;16.20;72.70;;;;;;5094696;28;19912;-67
2023/05/08 06:54:40;;;;;;;;;;;16.10;73.20;;;;;;5091196;28;19912;-67
2023/05/08 06:57:07;;;;;;;;;;;16.10;73.60;;;;;;5091535;28;19920;-67
2023/05/08 06:59:34;;;;;;;;;;;16.10;73.60;;;;;;5091461;28;20418;-66
2023/05/08 07:02:00;;;;;;;;;;;16.10;74.20;;;;;;5091496;28;19999;-67
2023/05/08 07:04:27;;;;;;;;;;;16.00;73.70;;;;;;5091691;28;19954;-66
2023/05/08 07:06:54;;;;;;;;;;;15.90;73.40;;;;;;5091434;28;20341;-67
2023/05/08 07:09:20;;;;;;;;;;;16.00;72.80;;;;;;5090856;28;19912;-67
2023/05/08 07:11:47;;;;;;;;;;;16.00;72.80;;;;;;5091357;28;19999;-69
2023/05/08 07:14:14;;;;;;;;;;;16.00;71.40;;;;;;5090452;28;20292;-65
2023/05/08 07:16:40;;;;;;;;;;;15.90;71.60;;;;;;5090770;28;19924;-69
2023/05/08 07:19:07;;;;;;;;;;;15.90;71.50;;;;;;5090568;28;19912;-69
2023/05/08 07:21:34;;;;;;;;;;;15.80;71.50;;;;;;5089768;28;19961;-69
2023/05/08 07:24:00;;;;;;;;;;;15.80;71.80;;;;;;5090807;28;20433;-68
2023/05/08 07:26:27;;;;;;;;;;;15.70;72.30;;;;;;5090560;28;20000;-68
2023/05/08 07:28:54;;;;;;;;;;;15.60;72.60;;;;;;5072594;28;20465;-65
2023/05/08 07:31:20;;;;;;;;;;;15.50;73.00;;;;;;5073242;28;20319;-69
2023/05/08 07:33:47;;;;;;;;;;;15.50;73.70;;;;;;5090138;28;19911;-67
2023/05/08 07:36:14;;;;;;;;;;;15.40;74.10;;;;;;5089284;28;19916;-67
2023/05/08 07:38:40;;;;;;;;;;;15.40;74.70;;;;;;5091098;28;19912;-66
2023/05/08 07:41:07;;;;;;;;;;;15.30;75.10;;;;;;5090603;28;19932;-65
2023/05/08 07:43:34;;;;;;;;;;;15.30;75.30;;;;;;5091249;28;19981;-66
2023/05/08 07:46:00;;;;;;;;;;;15.30;75.80;;;;;;5090859;28;19912;-67
2023/05/08 07:48:27;;;;;;;;;;;15.30;76.40;;;;;;5091292;28;19916;-65
2023/05/08 07:50:53;;;;;;;;;;;15.20;76.70;;;;;;5091380;28;20438;-66
2023/05/08 07:53:20;;;;;;;;;;;15.20;77.00;;;;;;5093648;28;19927;-67
2023/05/08 07:55:47;;;;;;;;;;;15.20;77.40;;;;;;5094428;28;19922;-68
2023/05/08 07:58:13;;;;;;;;;;;15.20;77.50;;;;;;5085224;28;20423;-69
2023/05/08 08:00:40;;;;;;;;;;;15.10;77.80;;;;;;5091789;28;20289;-67
2023/05/08 08:03:07;;;;;;;;;;;15.00;78.20;;;;;;5091224;28;19915;-68
2023/05/08 08:05:33;;;;;;;;;;;15.00;78.50;;;;;;5091457;28;19945;-67
2023/05/08 08:08:00;;;;;;;;;;;14.90;78.70;;;;;;5090867;28;20376;-68
2023/05/08 08:10:27;;;;;;;;;;;14.80;78.70;;;;;;5091229;28;19978;-68
2023/05/08 08:12:53;;;;;;;;;;;14.80;79.30;;;;;;5072873;28;20016;-68
2023/05/08 08:15:20;;;;;;;;;;;14.80;78.90;;;;;;5090720;28;19919;-68
2023/05/08 08:17:47;;;;;;;;;;;14.60;78.70;;;;;;5104916;28;20496;-68
2023/05/08 08:20:14;;;;;;;;;;;14.60;78.60;;;;;;5090475;28;19914;-67
2023/05/08 08:22:40;;;;;;;;;;;14.60;78.70;;;;;;5090167;28;19947;-68
2023/05/08 08:25:07;;;;;;;;;;;14.60;78.80;;;;;;5087318;28;19983;-68
2023/05/08 08:27:34;;;;;;;;;;;14.50;79.00;;;;;;5088242;28;20362;-68
2023/05/08 08:30:01;;;;;;;;;;;14.40;79.20;;;;;;5090125;28;20388;-67
2023/05/08 08:32:27;;;;;;;;;;;14.40;79.30;;;;;;5090117;28;19965;-67
2023/05/08 08:34:54;;;;;;;;;;;14.30;79.90;;;;;;5090906;28;19916;-66
2023/05/08 08:37:21;;;;;;;;;;;14.30;80.00;;;;;;5089379;28;19920;-67
2023/05/08 08:39:47;;;;;;;;;;;14.20;79.90;;;;;;5091778;28;19908;-68
2023/05/08 08:42:14;;;;;;;;;;;14.10;79.80;;;;;;5090714;28;20392;-67
2023/05/08 08:44:41;;;;;;;;;;;14.10;79.90;;;;;;5087974;28;19912;-68
2023/05/08 08:47:10;;;;;;;;;;;14.10;80.00;;;;;;5091570;28;20269;-68
2023/05/08 08:49:45;;;;;;;;;;;14.10;80.40;;;;;;5091831;28;19915;-67
2023/05/08 08:52:18;;;;;;;;;;;14.00;80.30;;;;;;5089920;28;19942;-70
2023/05/08 08:54:46;;;;;;;;;;;14.00;80.50;;;;;;5094401;28;19908;-69
2023/05/08 08:57:13;;;;;;;;;;;13.90;81.00;;;;;;5094981;28;20396;-68
2023/05/08 08:59:40;;;;;;;;;;;13.90;81.10;;;;;;5094517;28;19919;-69
2023/05/08 09:02:11;;;;;;;;;;;13.80;81.50;;;;;;5092673;28;19916;-68
2023/05/08 09:04:38;;;;;;;;;;;13.70;81.80;;;;;;5089106;28;19945;-69
2023/05/08 09:07:07;;;;;;;;;;;13.70;82.50;;;;;;5094647;28;19912;-68
2023/05/08 09:09:34;;;;;;;;;;;13.60;82.70;;;;;;5094913;28;20052;-69
2023/05/08 09:12:01;;;;;;;;;;;13.50;84.40;;;;;;5094391;28;19919;-68
2023/05/08 09:14:28;;;;;;;;;;;13.50;84.50;;;;;;5094750;28;20357;-68
2023/05/08 09:16:54;;;;;;;;;;;13.30;84.00;;;;;;5094665;28;19931;-68
2023/05/08 09:19:22;;;;;;;;;;;13.40;83.80;;;;;;5094659;28;20007;-68
2023/05/08 09:21:49;;;;;;;;;;;13.30;84.40;;;;;;5093984;28;19912;-68
2023/05/08 09:24:15;;;;;;;;;;;13.30;83.90;;;;;;5093741;28;19931;-67
2023/05/08 09:26:42;;;;;;;;;;;13.40;84.30;;;;;;5094739;28;20395;-69
2023/05/08 09:29:21;;;;;;;;;;;13.30;84.10;;;;;;5094403;28;20326;-69
2023/05/08 09:31:48;;;;;;;;;;;13.40;84.40;;;;;;5094608;28;19916;-69
2023/05/08 09:34:27;;;;;;;;;;;13.40;84.70;;;;;;5094414;28;20241;-69
2023/05/08 09:37:12;;;;;;;;;;;13.50;84.80;;;;;;5093457;28;19927;-69
2023/05/08 09:39:40;;;;;;;;;;;13.50;85.00;;;;;;5094190;28;19919;-67
2023/05/08 09:42:07;;;;;;;;;;;13.50;85.40;;;;;;5093708;28;19920;-69
2023/05/08 09:44:44;;;;;;;;;;;13.60;85.90;;;;;;5092146;28;19912;-68
2023/05/08 09:47:21;;;;;;;;;;;13.60;86.70;;;;;;5094001;28;19912;-68
2023/05/08 09:50:07;;;;;;;;;;;13.60;86.70;;;;;;5073831;28;19965;-69
2023/05/08 09:52:35;;;;;;;;;;;13.60;87.20;;;;;;5087051;28;19935;-69
2023/05/08 09:55:03;;;;;;;;;;;13.60;87.60;;;;;;5086232;28;19908;-68
2023/05/08 09:57:30;;;;;;;;;;;13.60;87.90;;;;;;5093808;28;19970;-66
2023/05/08 10:00:15;;;;;;;;;;;13.70;88.10;;;;;;5093948;28;20288;-65
2023/05/08 10:02:52;;;;;;;;;;;13.70;88.20;;;;;;5093410;28;20318;-68
2023/05/08 10:05:26;;;;;;;;;;;13.80;88.30;;;;;;5092429;28;20452;-66
2023/05/08 10:07:53;;;;;;;;;;;13.70;88.40;;;;;;5091175;28;20395;-66
2023/05/08 10:10:26;;;;;;;;;;;13.70;88.60;;;;;;5093103;28;20365;-65
2023/05/08 10:12:53;;;;;;;;;;;13.60;88.90;;;;;;5093894;28;20250;-67
2023/05/08 10:15:22;;;;;;;;;;;13.70;89.00;;;;;;5092887;28;20316;-67
2023/05/08 10:17:54;;;;;;;;;;;13.70;89.10;;;;;;5093737;28;19927;-67
2023/05/08 10:20:22;;;;;;;;;;;13.60;89.10;;;;;;5094042;28;19915;-66
2023/05/08 10:22:49;;;;;;;;;;;13.60;89.30;;;;;;5093094;28;19912;-67
2023/05/08 10:25:16;;;;;;;;;;;13.50;89.20;;;;;;5072980;28;19923;-68
2023/05/08 10:27:56;;;;;;;;;;;13.40;89.70;;;;;;5091247;28;20357;-66
2023/05/08 10:30:24;;;;;;;;;;;13.50;90.00;;;;;;5073713;28;19994;-65
2023/05/08 10:32:54;;;;;;;;;;;13.40;90.00;;;;;;5092499;28;19912;-65
2023/05/08 10:35:22;;;;;;;;;;;13.30;90.10;;;;;;5092507;28;19908;-64
2023/05/08 10:37:49;;;;;;;;;;;13.20;90.30;;;;;;5092787;28;19920;-66
2023/05/08 10:40:17;;;;;;;;;;;13.20;90.20;;;;;;5093302;28;19908;-68
2023/05/08 10:42:44;;;;;;;;;;;13.20;90.30;;;;;;5092591;28;19924;-67
2023/05/08 10:45:11;;;;;;;;;;;13.10;90.30;;;;;;5092439;28;19919;-69
2023/05/08 10:47:41;;;;;;;;;;;13.00;90.40;;;;;;5092701;28;20331;-67
2023/05/08 10:50:07;;;;;;;;;;;13.10;90.40;;;;;;5092953;28;20004;-67
2023/05/08 10:52:38;;;;;;;;;;;13.10;90.50;;;;;;5092526;28;19916;-67
2023/05/08 10:55:15;;;;;;;;;;;13.10;90.20;;;;;;5092377;28;20357;-68
2023/05/08 10:58:01;;;;;;;;;;;13.10;90.20;;;;;;5093089;28;19967;-68
2023/05/08 11:00:32;;;;;;;;;;;13.00;90.40;;;;;;5092853;28;19923;-66
2023/05/08 11:03:05;;;;;;;;;;;12.90;90.40;;;;;;5092701;28;19943;-68
2023/05/08 11:05:44;;;;;;;;;;;12.90;90.40;;;;;;5092491;28;19914;-65
2023/05/08 11:08:14;;;;;;;;;;;12.90;90.50;;;;;;5090444;28;20355;-68
2023/05/08 11:10:41;;;;;;;;;;;12.90;90.60;;;;;;5091238;28;20548;-69
2023/05/08 11:13:08;;;;;;;;;;;12.90;90.50;;;;;;5092681;28;19981;-69
2023/05/08 11:15:36;;;;;;;;;;;12.80;90.70;;;;;;5092487;28;19912;-66
2023/05/08 11:18:07;;;;;;;;;;;12.80;90.80;;;;;;5092740;28;20430;-68
2023/05/08 11:20:41;;;;;;;;;;;12.80;91.00;;;;;;5087080;28;19959;-68
2023/05/08 11:23:22;;;;;;;;;;;12.70;91.10;;;;;;5100987;28;20344;-67
2023/05/08 11:26:00;;;;;;;;;;;12.70;91.20;;;;;;5105691;28;19908;-69
2023/05/08 11:28:27;;;;;;;;;;;12.60;91.20;;;;;;5088140;28;20014;-68
2023/05/08 11:30:55;;;;;;;;;;;12.60;91.50;;;;;;5091577;28;19916;-69
2023/05/08 11:33:22;;;;;;;;;;;12.60;91.60;;;;;;5091405;28;20391;-68
2023/05/08 11:35:53;;;;;;;;;;;12.50;91.50;;;;;;5089070;28;19915;-68
2023/05/08 11:38:24;;;;;;;;;;;12.50;92.00;;;;;;5091512;28;19923;-65
2023/05/08 11:40:56;;;;;;;;;;;12.40;91.90;;;;;;5091329;28;20419;-69
2023/05/08 11:43:32;;;;;;;;;;;12.30;91.80;;;;;;5091612;28;19916;-68
2023/05/08 11:46:07;;;;;;;;;;;12.30;92.10;;;;;;5091351;28;19994;-67
2023/05/08 11:48:34;;;;;;;;;;;12.30;92.30;;;;;;5071619;28;20365;-67
2023/05/08 11:51:02;;;;;;;;;;;12.20;92.40;;;;;;5091607;28;19910;-67
2023/05/08 11:53:30;;;;;;;;;;;12.20;92.80;;;;;;5091813;28;19995;-67
2023/05/08 11:55:56;;;;;;;;;;;12.10;92.60;;;;;;5091596;28;19963;-67
2023/05/08 11:58:23;;;;;;;;;;;12.10;92.50;;;;;;5091460;28;19916;-68
2023/05/08 12:00:50;;;;;;;;;;;12.10;92.70;;;;;;5091676;28;19908;-70
2023/05/08 12:03:18;;;;;;;;;;;12.00;92.50;;;;;;5091577;28;19908;-67
2023/05/08 12:05:45;;;;;;;;;;;12.00;92.80;;;;;;5091004;28;19912;-68
2023/05/08 12:08:13;;;;;;;;;;;12.00;93.10;;;;;;5090808;28;19913;-68
2023/05/08 12:10:48;;;;;;;;;;;12.00;92.90;;;;;;5091622;28;19913;-66
2023/05/08 12:13:25;;;;;;;;;;;11.90;92.80;;;;;;5092215;28;19962;-70
2023/05/08 12:15:53;;;;;;;;;;;12.00;92.70;;;;;;5093980;28;20385;-66
2023/05/08 12:18:20;;;;;;;;;;;11.90;92.60;;;;;;5091493;28;19967;-67
2023/05/08 12:20:52;;;;;;;;;;;11.90;92.70;;;;;;5092494;28;19915;-68
2023/05/08 12:23:18;;;;;;;;;;;11.90;93.00;;;;;;5091621;28;20007;-68
2023/05/08 12:25:45;;;;;;;;;;;11.90;93.60;;;;;;5092003;28;19908;-70
2023/05/08 12:28:12;;;;;;;;;;;11.80;93.40;;;;;;5092645;28;20395;-68
2023/05/08 12:30:39;;;;;;;;;;;11.80;93.50;;;;;;5095245;28;19908;-68
2023/05/08 12:33:05;;;;;;;;;;;11.70;93.50;;;;;;5095394;28;20284;-70
2023/05/08 12:35:32;;;;;;;;;;;11.70;94.00;;;;;;5095312;28;19912;-68
2023/05/08 12:38:02;;;;;;;;;;;11.70;94.00;;;;;;5095596;28;19962;-67
2023/05/08 12:40:39;;;;;;;;;;;11.60;94.50;;;;;;5095220;28;20361;-68
2023/05/08 12:43:06;;;;;;;;;;;11.60;94.60;;;;;;5095834;28;20445;-67
2023/05/08 12:45:33;;;;;;;;;;;11.60;94.40;;;;;;5095813;28;19908;-67
2023/05/08 12:48:02;;;;;;;;;;;11.50;94.50;;;;;;5095483;28;19912;-68
2023/05/08 12:50:32;;;;;;;;;;;11.50;95.10;;;;;;5095653;28;19908;-66
2023/05/08 12:53:06;;;;;;;;;;;11.50;94.80;;;;;;5095215;28;19912;-66
2023/05/08 12:55:34;;;;;;;;;;;11.40;94.90;;;;;;5095067;28;19908;-67
2023/05/08 12:58:08;;;;;;;;;;;11.40;95.20;;;;;;5095618;28;19916;-66
2023/05/08 13:00:38;;;;;;;;;;;11.40;95.30;;;;;;5095866;28;19912;-67
2023/05/08 13:03:06;;;;;;;;;;;11.40;95.50;;;;;;5095651;28;19958;-66
2023/05/08 13:05:35;;;;;;;;;;;11.40;95.40;;;;;;5095620;28;20264;-66
2023/05/08 13:08:08;;;;;;;;;;;11.30;95.40;;;;;;5094630;28;19920;-66
2023/05/08 13:10:51;;;;;;;;;;;11.40;95.40;;;;;;5093329;28;19959;-68
2023/05/08 13:13:19;;;;;;;;;;;11.40;95.60;;;;;;5095525;28;20374;-68
2023/05/08 13:15:46;;;;;;;;;;;11.40;95.80;;;;;;5094706;28;19958;-66
2023/05/08 13:18:13;;;;;;;;;;;11.40;95.90;;;;;;5095664;28;20417;-66
2023/05/08 13:20:40;;;;;;;;;;;11.30;96.10;;;;;;5095472;28;20360;-66
2023/05/08 13:23:07;;;;;;;;;;;11.30;96.10;;;;;;5094996;28;19958;-68
2023/05/08 13:25:34;;;;;;;;;;;11.30;96.20;;;;;;5094757;28;20325;-67
2023/05/08 13:28:01;;;;;;;;;;;11.30;96.60;;;;;;5095367;28;19917;-69
2023/05/08 13:30:27;;;;;;;;;;;11.20;96.60;;;;;;5095179;28;20352;-67
2023/05/08 13:32:54;;;;;;;;;;;11.20;96.80;;;;;;5094934;28;20334;-66
2023/05/08 13:35:21;;;;;;;;;;;11.10;96.50;;;;;;5094658;28;19931;-68
2023/05/08 13:37:48;;;;;;;;;;;11.20;96.70;;;;;;5076592;28;19923;-66
2023/05/08 13:40:15;;;;;;;;;;;11.10;96.80;;;;;;5093842;28;19908;-67
2023/05/08 13:42:42;;;;;;;;;;;11.10;97.00;;;;;;5092710;28;19920;-66
2023/05/08 13:45:10;;;;;;;;;;;11.10;97.20;;;;;;5094085;28;19952;-66
2023/05/08 13:47:36;;;;;;;;;;;11.10;97.20;;;;;;5094846;28;19909;-67
2023/05/08 13:50:03;;;;;;;;;;;11.00;97.10;;;;;;5094670;28;20003;-68
2023/05/08 13:52:30;;;;;;;;;;;11.00;97.00;;;;;;5094138;28;19912;-66
2023/05/08 13:54:57;;;;;;;;;;;11.00;96.90;;;;;;5093891;28;20264;-68
2023/05/08 13:57:23;;;;;;;;;;;11.00;96.80;;;;;;5076108;28;20292;-67
2023/05/08 13:59:50;;;;;;;;;;;11.00;96.40;;;;;;5094632;28;19914;-66
2023/05/08 14:02:17;;;;;;;;;;;11.10;96.00;;;;;;5093972;28;19956;-66
2023/05/08 14:04:43;;;;;;;;;;;11.10;95.80;;;;;;5094194;28;19908;-66
2023/05/08 14:07:10;;;;;;;;;;;11.20;95.40;;;;;;5094195;28;19908;-67
2023/05/08 14:09:37;;;;;;;;;;;11.20;95.40;;;;;;5094291;28;20420;-66
2023/05/08 14:12:03;;;;;;;;;;;11.20;95.30;;;;;;5093315;28;20365;-67
2023/05/08 14:14:30;;;;;;;;;;;11.30;95.00;;;;;;5094190;28;20313;-66
2023/05/08 14:16:56;;;;;;;;;;;11.30;95.00;;;;;;5094085;28;19918;-67
2023/05/08 14:19:23;;;;;;;;;;;11.30;95.00;;;;;;5075351;28;20007;-67
2023/05/08 14:21:50;;;;;;;;;;;11.40;94.90;;;;;;5094078;28;20018;-68
2023/05/08 14:24:17;;;;;;;;;;;11.40;94.90;;;;;;5093459;28;19920;-69
2023/05/08 14:26:44;;;;;;;;;;;11.30;94.90;;;;;;5092467;28;19920;-65